Time;durP1;ratioP1;P1;durP2;ratioP2;P2;SDS_P1;SDS_P2;PMS_P1;PMS_P2;Temp;Humidity;BMP_temperature;BMP_pressure;BME280_temperature;BME280_humidity;BME280_pressure;Samples;Min_cycle;Max_cycle;Signal;HPM_P1;HPM_P2
2023/01/02 00:01:05;;;;;;;;;;;11.10;99.90;;;;;;5086322;28;20003;-69
2023/01/02 00:03:30;;;;;;;;;;;11.10;99.90;;;;;;5087303;28;19908;-70
2023/01/02 00:05:56;;;;;;;;;;;11.10;99.90;;;;;;5087334;28;20380;-69
2023/01/02 00:08:21;;;;;;;;;;;11.10;99.90;;;;;;5086854;28;19919;-70
2023/01/02 00:10:47;;;;;;;;;;;11.10;99.90;;;;;;5086673;28;19923;-70
2023/01/02 00:13:13;;;;;;;;;;;11.10;99.90;;;;;;5086671;28;20460;-70
2023/01/02 00:15:38;;;;;;;;;;;11.10;99.90;;;;;;5085198;28;19916;-69
2023/01/02 00:18:04;;;;;;;;;;;11.10;99.90;;;;;;5087398;28;20285;-69
2023/01/02 00:20:29;;;;;;;;;;;11.10;99.90;;;;;;5086070;28;19919;-70
2023/01/02 00:22:55;;;;;;;;;;;11.10;99.90;;;;;;5078749;28;20475;-70
2023/01/02 00:25:20;;;;;;;;;;;11.10;99.90;;;;;;5084542;28;20677;-70
2023/01/02 00:27:46;;;;;;;;;;;11.20;99.90;;;;;;5088202;28;19955;-70
2023/01/02 00:30:11;;;;;;;;;;;11.20;99.90;;;;;;5084525;28;20045;-70
2023/01/02 00:32:37;;;;;;;;;;;11.20;99.90;;;;;;5088283;28;20492;-69
2023/01/02 00:35:03;;;;;;;;;;;11.20;99.90;;;;;;5087505;28;19912;-69
2023/01/02 00:37:29;;;;;;;;;;;11.20;99.90;;;;;;5088073;28;19919;-70
2023/01/02 00:39:54;;;;;;;;;;;11.20;99.90;;;;;;5084209;28;19924;-70
2023/01/02 00:42:19;;;;;;;;;;;11.30;99.90;;;;;;5088098;28;19912;-69
2023/01/02 00:44:45;;;;;;;;;;;11.30;99.90;;;;;;5066220;28;19932;-70
2023/01/02 00:47:10;;;;;;;;;;;11.30;99.90;;;;;;5086694;28;19931;-70
2023/01/02 00:49:36;;;;;;;;;;;11.30;99.90;;;;;;5084276;28;19908;-70
2023/01/02 00:52:01;;;;;;;;;;;11.30;99.90;;;;;;5086978;28;19942;-70
2023/01/02 00:54:27;;;;;;;;;;;11.30;99.90;;;;;;5083605;28;19913;-70
2023/01/02 00:56:52;;;;;;;;;;;11.30;99.90;;;;;;5076897;28;19916;-70
2023/01/02 00:59:18;;;;;;;;;;;11.30;99.90;;;;;;5074258;28;20085;-70
2023/01/02 01:01:43;;;;;;;;;;;11.30;99.90;;;;;;5068462;28;19912;-71
2023/01/02 01:04:09;;;;;;;;;;;11.30;99.90;;;;;;5086970;28;19908;-71
2023/01/02 01:06:34;;;;;;;;;;;11.30;99.90;;;;;;5067151;28;19934;-70
2023/01/02 01:09:00;;;;;;;;;;;11.30;99.90;;;;;;5066931;28;19912;-69
2023/01/02 01:11:25;;;;;;;;;;;11.30;99.90;;;;;;5067116;28;19958;-71
2023/01/02 01:13:51;;;;;;;;;;;11.30;99.90;;;;;;5067012;28;20007;-70
2023/01/02 01:16:17;;;;;;;;;;;11.30;99.90;;;;;;5076851;28;20376;-70
2023/01/02 01:18:43;;;;;;;;;;;11.30;99.90;;;;;;5067207;28;19919;-70
2023/01/02 01:21:11;;;;;;;;;;;11.30;99.90;;;;;;5066892;28;19916;-70
2023/01/02 01:23:37;;;;;;;;;;;11.30;99.90;;;;;;5067048;28;19909;-70
2023/01/02 01:26:12;;;;;;;;;;;11.30;99.90;;;;;;5066513;28;19912;-71
2023/01/02 01:28:37;;;;;;;;;;;11.30;99.90;;;;;;5066982;28;19908;-70
2023/01/02 01:31:04;;;;;;;;;;;11.30;99.90;;;;;;5066628;28;19912;-70
2023/01/02 01:33:30;;;;;;;;;;;11.30;99.90;;;;;;5073795;28;20029;-70
2023/01/02 01:35:59;;;;;;;;;;;11.30;99.90;;;;;;5087316;28;19915;-70
2023/01/02 01:38:25;;;;;;;;;;;11.30;99.90;;;;;;5086827;28;19988;-70
2023/01/02 01:40:50;;;;;;;;;;;11.20;99.90;;;;;;5086865;28;20363;-69
2023/01/02 01:43:16;;;;;;;;;;;11.20;99.90;;;;;;5086385;28;19920;-70
2023/01/02 01:45:42;;;;;;;;;;;11.20;99.90;;;;;;5086846;28;20507;-70
2023/01/02 01:48:11;;;;;;;;;;;11.20;99.90;;;;;;5086971;28;19919;-71
2023/01/02 01:50:36;;;;;;;;;;;11.20;99.90;;;;;;5067972;28;20458;-70
2023/01/02 01:53:05;;;;;;;;;;;11.20;99.90;;;;;;5086484;28;19951;-70
2023/01/02 01:55:33;;;;;;;;;;;11.20;99.90;;;;;;5086184;28;19912;-70
2023/01/02 01:58:10;;;;;;;;;;;11.20;99.90;;;;;;5084502;28;19916;-70
2023/01/02 02:00:35;;;;;;;;;;;11.20;99.90;;;;;;5084579;28;19926;-70
2023/01/02 02:03:07;;;;;;;;;;;11.20;99.90;;;;;;5087599;28;19995;-70
2023/01/02 02:05:33;;;;;;;;;;;11.20;99.90;;;;;;5086774;28;19912;-71
2023/01/02 02:08:19;;;;;;;;;;;11.20;99.90;;;;;;5068489;28;19919;-70
2023/01/02 02:10:45;;;;;;;;;;;11.20;99.90;;;;;;5086036;28;19916;-70
2023/01/02 02:13:11;;;;;;;;;;;11.10;99.90;;;;;;5086896;28;19916;-70
2023/01/02 02:15:36;;;;;;;;;;;11.20;99.90;;;;;;5085590;28;19918;-70
2023/01/02 02:18:22;;;;;;;;;;;11.10;99.90;;;;;;5086781;28;20003;-70
2023/01/02 02:20:51;;;;;;;;;;;11.10;99.90;;;;;;5058264;28;19965;-69
2023/01/02 02:23:17;;;;;;;;;;;11.10;99.90;;;;;;5090811;28;19916;-70
2023/01/02 02:26:02;;;;;;;;;;;11.10;99.90;;;;;;5090769;28;19912;-70
2023/01/02 02:28:38;;;;;;;;;;;11.10;99.90;;;;;;5090509;28;19995;-70
2023/01/02 02:31:04;;;;;;;;;;;11.10;99.90;;;;;;5089941;28;20490;-69
2023/01/02 02:33:41;;;;;;;;;;;11.10;99.90;;;;;;5080807;28;19912;-69
2023/01/02 02:36:15;;;;;;;;;;;11.10;99.90;;;;;;5090828;28;19912;-69
2023/01/02 02:38:57;;;;;;;;;;;11.10;99.90;;;;;;5090370;28;19912;-70
2023/01/02 02:41:28;;;;;;;;;;;11.10;99.90;;;;;;5090718;28;19912;-69
2023/01/02 02:43:56;;;;;;;;;;;11.10;99.90;;;;;;5090190;28;19919;-71
2023/01/02 02:46:25;;;;;;;;;;;11.10;99.90;;;;;;5090039;28;19916;-71
2023/01/02 02:48:59;;;;;;;;;;;11.10;99.90;;;;;;5089980;28;19912;-70
2023/01/02 02:51:36;;;;;;;;;;;11.10;99.90;;;;;;5088617;28;20587;-71
2023/01/02 02:54:10;;;;;;;;;;;11.10;99.90;;;;;;5084631;28;20388;-70
2023/01/02 02:56:35;;;;;;;;;;;11.10;99.90;;;;;;5090070;28;19912;-70
2023/01/02 02:59:01;;;;;;;;;;;11.10;99.90;;;;;;5089790;28;19915;-70
2023/01/02 03:01:28;;;;;;;;;;;11.10;99.90;;;;;;5089986;28;19908;-71
2023/01/02 03:03:53;;;;;;;;;;;11.10;99.90;;;;;;5091016;28;19919;-70
2023/01/02 03:06:19;;;;;;;;;;;11.10;99.90;;;;;;5071488;28;19912;-71
2023/01/02 03:09:03;;;;;;;;;;;11.10;99.90;;;;;;5089679;28;19916;-71
2023/01/02 03:11:54;;;;;;;;;;;11.10;99.90;;;;;;5088686;28;20015;-71
2023/01/02 03:14:23;;;;;;;;;;;11.10;99.90;;;;;;5065380;28;19916;-71
2023/01/02 03:16:53;;;;;;;;;;;11.10;99.90;;;;;;5088339;28;20038;-71
2023/01/02 03:19:28;;;;;;;;;;;11.10;99.90;;;;;;5088311;28;19942;-70
2023/01/02 03:21:54;;;;;;;;;;;11.10;99.90;;;;;;5089768;28;19912;-71
2023/01/02 03:24:20;;;;;;;;;;;11.10;99.90;;;;;;5088832;28;19915;-71
2023/01/02 03:26:47;;;;;;;;;;;11.10;99.90;;;;;;5089640;28;19915;-71
2023/01/02 03:29:17;;;;;;;;;;;11.10;99.90;;;;;;5088445;28;19919;-71
2023/01/02 03:31:45;;;;;;;;;;;11.10;99.90;;;;;;5089166;28;19908;-71
2023/01/02 03:34:13;;;;;;;;;;;11.10;99.90;;;;;;5089100;28;19914;-71
2023/01/02 03:36:40;;;;;;;;;;;11.10;99.90;;;;;;5089351;28;19934;-71
2023/01/02 03:39:13;;;;;;;;;;;11.10;99.90;;;;;;5088865;28;19919;-70
2023/01/02 03:41:59;;;;;;;;;;;11.10;99.90;;;;;;5089040;28;19920;-71
2023/01/02 03:44:29;;;;;;;;;;;11.10;99.90;;;;;;5088335;28;19916;-70
2023/01/02 03:47:06;;;;;;;;;;;11.10;99.90;;;;;;5089262;28;19916;-71
2023/01/02 03:49:33;;;;;;;;;;;11.10;99.90;;;;;;5089074;28;19912;-71
2023/01/02 03:51:59;;;;;;;;;;;11.10;99.90;;;;;;5066978;28;20402;-71
2023/01/02 03:54:25;;;;;;;;;;;11.10;99.90;;;;;;5086280;28;19916;-71
2023/01/02 03:57:00;;;;;;;;;;;11.10;99.90;;;;;;5088030;28;19958;-71
2023/01/02 03:59:44;;;;;;;;;;;11.10;99.90;;;;;;5088324;28;19982;-71
2023/01/02 04:02:17;;;;;;;;;;;11.10;99.90;;;;;;5087623;28;20422;-71
2023/01/02 04:05:06;;;;;;;;;;;11.10;99.90;;;;;;5089231;28;20020;-72
2023/01/02 04:07:35;;;;;;;;;;;11.10;99.90;;;;;;5079598;28;20494;-71
2023/01/02 04:10:01;;;;;;;;;;;11.10;99.90;;;;;;5087825;28;19989;-71
2023/01/02 04:12:27;;;;;;;;;;;11.10;99.90;;;;;;5088412;28;19912;-70
2023/01/02 04:14:57;;;;;;;;;;;11.00;99.90;;;;;;5088254;28;19916;-71
2023/01/02 04:17:24;;;;;;;;;;;11.00;99.90;;;;;;5088682;28;19958;-71
2023/01/02 04:19:53;;;;;;;;;;;11.00;99.90;;;;;;5070242;28;19919;-70
2023/01/02 04:22:22;;;;;;;;;;;11.00;99.90;;;;;;5070412;28;19916;-71
2023/01/02 04:24:53;;;;;;;;;;;11.00;99.90;;;;;;5087570;28;19908;-71
2023/01/02 04:27:27;;;;;;;;;;;11.00;99.90;;;;;;5088165;28;19920;-71
2023/01/02 04:29:53;;;;;;;;;;;11.00;99.90;;;;;;5080352;28;20006;-71
2023/01/02 04:32:21;;;;;;;;;;;11.00;99.90;;;;;;5085146;28;20032;-71
2023/01/02 04:34:48;;;;;;;;;;;11.00;99.90;;;;;;5088640;28;19934;-71
2023/01/02 04:37:32;;;;;;;;;;;11.00;99.90;;;;;;5088247;28;19912;-72
2023/01/02 04:40:00;;;;;;;;;;;11.00;99.90;;;;;;5088123;28;19924;-72
2023/01/02 04:42:25;;;;;;;;;;;11.00;99.90;;;;;;5087055;28;19912;-71
2023/01/02 04:44:51;;;;;;;;;;;11.00;99.90;;;;;;5087745;28;19915;-71
2023/01/02 04:47:16;;;;;;;;;;;11.00;99.90;;;;;;5088161;28;20342;-71
2023/01/02 04:49:41;;;;;;;;;;;11.00;99.90;;;;;;5087581;28;19908;-71
2023/01/02 04:52:07;;;;;;;;;;;11.00;99.90;;;;;;5082444;28;20007;-71
2023/01/02 04:54:32;;;;;;;;;;;11.00;99.90;;;;;;5086486;28;19939;-71
2023/01/02 04:56:59;;;;;;;;;;;11.00;99.90;;;;;;5087905;28;20600;-71
2023/01/02 04:59:24;;;;;;;;;;;11.00;99.90;;;;;;5087221;28;19920;-71
2023/01/02 05:01:50;;;;;;;;;;;11.00;99.90;;;;;;5087770;28;19919;-71
2023/01/02 05:04:15;;;;;;;;;;;11.00;99.90;;;;;;5088526;28;19914;-71
2023/01/02 05:06:40;;;;;;;;;;;10.90;99.90;;;;;;5087910;28;19916;-71
2023/01/02 05:09:06;;;;;;;;;;;10.90;99.90;;;;;;5087637;28;19997;-70
2023/01/02 05:11:31;;;;;;;;;;;10.90;99.90;;;;;;5087534;28;19914;-71
2023/01/02 05:13:57;;;;;;;;;;;11.00;99.90;;;;;;5087293;28;19916;-71
2023/01/02 05:16:22;;;;;;;;;;;10.90;99.90;;;;;;5087728;28;19912;-71
2023/01/02 05:18:48;;;;;;;;;;;11.00;99.90;;;;;;5087464;28;19938;-70
2023/01/02 05:23:59;;;;;;;;;;;10.90;99.90;;;;;;5087671;28;19915;-71
2023/01/02 05:26:25;;;;;;;;;;;11.00;99.90;;;;;;5087627;28;20292;-70
2023/01/02 05:28:51;;;;;;;;;;;10.90;99.90;;;;;;5087327;28;19912;-71
2023/01/02 05:31:16;;;;;;;;;;;10.90;99.90;;;;;;5087292;28;19974;-71
2023/01/02 05:33:42;;;;;;;;;;;11.00;99.90;;;;;;5087453;28;19955;-71
2023/01/02 05:36:07;;;;;;;;;;;11.00;99.90;;;;;;5087387;28;19919;-70
2023/01/02 05:38:33;;;;;;;;;;;11.00;99.90;;;;;;5069030;28;20476;-70
2023/01/02 05:41:00;;;;;;;;;;;11.00;99.90;;;;;;5068774;28;19916;-71
2023/01/02 05:43:25;;;;;;;;;;;10.90;99.90;;;;;;5086939;28;19912;-71
2023/01/02 05:45:51;;;;;;;;;;;10.90;99.90;;;;;;5063261;28;19920;-71
2023/01/02 05:48:16;;;;;;;;;;;10.90;99.90;;;;;;5086844;28;20311;-70
2023/01/02 05:50:41;;;;;;;;;;;10.90;99.90;;;;;;5086459;28;19912;-70
2023/01/02 05:53:07;;;;;;;;;;;11.00;99.90;;;;;;5086402;28;19916;-71
2023/01/02 05:55:32;;;;;;;;;;;11.00;99.90;;;;;;5086591;28;19912;-70
2023/01/02 05:58:01;;;;;;;;;;;10.90;99.90;;;;;;5086821;28;19912;-71
2023/01/02 06:00:26;;;;;;;;;;;11.00;99.90;;;;;;5086486;28;19977;-70
2023/01/02 06:02:52;;;;;;;;;;;10.90;99.90;;;;;;5086571;28;19912;-71
2023/01/02 06:05:17;;;;;;;;;;;11.00;99.90;;;;;;5086594;28;19981;-71
2023/01/02 06:07:43;;;;;;;;;;;11.00;99.90;;;;;;5086896;28;20532;-71
2023/01/02 06:10:08;;;;;;;;;;;10.90;99.90;;;;;;5086599;28;19919;-71
2023/01/02 06:12:34;;;;;;;;;;;10.90;99.90;;;;;;5086754;28;20415;-71
2023/01/02 06:14:59;;;;;;;;;;;11.00;99.90;;;;;;5086465;28;20019;-71
2023/01/02 06:17:24;;;;;;;;;;;10.90;99.90;;;;;;5086690;28;19919;-71
2023/01/02 06:19:50;;;;;;;;;;;10.90;99.90;;;;;;5086279;28;19912;-71
2023/01/02 06:22:15;;;;;;;;;;;11.00;99.90;;;;;;5086377;28;19912;-71
2023/01/02 06:24:41;;;;;;;;;;;10.90;99.90;;;;;;5086718;28;19912;-71
2023/01/02 06:27:06;;;;;;;;;;;11.00;99.90;;;;;;5087056;28;19912;-71
2023/01/02 06:29:32;;;;;;;;;;;10.90;99.90;;;;;;5086194;28;20285;-71
2023/01/02 06:31:57;;;;;;;;;;;10.90;99.90;;;;;;5086705;28;19913;-71
2023/01/02 06:34:23;;;;;;;;;;;10.90;99.90;;;;;;5086401;28;19919;-71
2023/01/02 06:36:48;;;;;;;;;;;10.90;99.90;;;;;;5086495;28;20012;-72
2023/01/02 06:39:14;;;;;;;;;;;10.90;99.90;;;;;;5086242;28;19924;-71
2023/01/02 06:41:39;;;;;;;;;;;10.90;99.90;;;;;;5086225;28;19912;-71
2023/01/02 06:44:04;;;;;;;;;;;10.90;99.90;;;;;;5085706;28;20321;-71
2023/01/02 06:46:30;;;;;;;;;;;10.90;99.90;;;;;;5086009;28;19912;-71
2023/01/02 06:48:55;;;;;;;;;;;10.90;99.90;;;;;;5085525;28;20476;-71
2023/01/02 06:51:22;;;;;;;;;;;10.90;99.90;;;;;;5085349;28;19916;-71
2023/01/02 06:53:47;;;;;;;;;;;10.90;99.90;;;;;;5084221;28;20596;-71
2023/01/02 06:56:14;;;;;;;;;;;11.00;99.90;;;;;;5063124;28;19923;-70
2023/01/02 06:58:40;;;;;;;;;;;11.00;99.90;;;;;;5070790;28;20261;-70
2023/01/02 07:01:07;;;;;;;;;;;10.90;99.90;;;;;;5063825;28;19923;-71
2023/01/02 07:03:33;;;;;;;;;;;11.00;99.90;;;;;;5086089;28;20027;-71
2023/01/02 07:05:59;;;;;;;;;;;11.00;99.90;;;;;;5078516;28;20417;-71
2023/01/02 07:08:25;;;;;;;;;;;10.90;99.90;;;;;;5069741;28;19922;-71
2023/01/02 07:10:50;;;;;;;;;;;11.00;99.90;;;;;;5069225;28;19909;-71
2023/01/02 07:13:16;;;;;;;;;;;11.00;99.90;;;;;;5068905;28;19920;-71
2023/01/02 07:15:41;;;;;;;;;;;11.00;99.90;;;;;;5083652;28;19961;-71
2023/01/02 07:18:07;;;;;;;;;;;10.90;99.90;;;;;;5079255;28;19908;-72
2023/01/02 07:20:32;;;;;;;;;;;11.00;99.90;;;;;;5069112;28;19925;-70
2023/01/02 07:22:58;;;;;;;;;;;10.90;99.90;;;;;;5069597;28;19919;-70
2023/01/02 07:25:23;;;;;;;;;;;10.90;99.90;;;;;;5069305;28;19916;-70
2023/01/02 07:27:48;;;;;;;;;;;11.00;99.90;;;;;;5069755;28;19916;-71
2023/01/02 07:30:15;;;;;;;;;;;10.90;99.90;;;;;;5069291;28;19916;-71
2023/01/02 07:32:40;;;;;;;;;;;10.90;99.90;;;;;;5069624;28;19988;-71
2023/01/02 07:35:06;;;;;;;;;;;11.00;99.90;;;;;;5087603;28;20002;-71
2023/01/02 07:37:32;;;;;;;;;;;11.00;99.90;;;;;;5089509;28;20017;-71
2023/01/02 07:39:57;;;;;;;;;;;11.00;99.90;;;;;;5089054;28;19920;-70
2023/01/02 07:42:23;;;;;;;;;;;10.90;99.90;;;;;;5071031;28;19916;-71
2023/01/02 07:44:48;;;;;;;;;;;11.00;99.90;;;;;;5089268;28;20472;-71
2023/01/02 07:47:13;;;;;;;;;;;11.00;99.90;;;;;;5089378;28;19912;-70
2023/01/02 07:49:39;;;;;;;;;;;11.00;99.90;;;;;;5089050;28;19916;-70
2023/01/02 07:52:10;;;;;;;;;;;10.90;99.90;;;;;;5084092;28;19912;-71
2023/01/02 07:54:36;;;;;;;;;;;11.00;99.90;;;;;;5088097;28;19908;-70
2023/01/02 07:57:01;;;;;;;;;;;10.90;99.90;;;;;;5089012;28;19956;-70
2023/01/02 07:59:27;;;;;;;;;;;11.00;99.90;;;;;;5088566;28;19961;-71
2023/01/02 08:01:52;;;;;;;;;;;11.00;99.90;;;;;;5088738;28;19951;-70
2023/01/02 08:04:18;;;;;;;;;;;11.00;99.90;;;;;;5088754;28;20551;-70
2023/01/02 08:06:43;;;;;;;;;;;11.00;99.90;;;;;;5088965;28;19956;-70
2023/01/02 08:09:09;;;;;;;;;;;10.90;99.90;;;;;;5088527;28;19999;-70
2023/01/02 08:11:34;;;;;;;;;;;11.00;99.90;;;;;;5088628;28;20273;-71
2023/01/02 08:14:00;;;;;;;;;;;10.90;99.90;;;;;;5088606;28;19920;-71
2023/01/02 08:16:25;;;;;;;;;;;11.00;99.90;;;;;;5087516;28;20443;-70
2023/01/02 08:18:53;;;;;;;;;;;10.90;99.90;;;;;;5088591;28;20010;-71
2023/01/02 08:21:18;;;;;;;;;;;10.90;99.90;;;;;;5088245;28;19929;-71
2023/01/02 08:23:44;;;;;;;;;;;11.00;99.90;;;;;;5088685;28;20357;-70
2023/01/02 08:26:10;;;;;;;;;;;10.90;99.90;;;;;;5087854;28;19914;-70
2023/01/02 08:28:37;;;;;;;;;;;10.90;99.90;;;;;;5088632;28;19931;-71
2023/01/02 08:31:16;;;;;;;;;;;10.90;99.90;;;;;;5088012;28;19990;-71
2023/01/02 08:33:41;;;;;;;;;;;10.90;99.90;;;;;;5088561;28;19962;-70
2023/01/02 08:36:07;;;;;;;;;;;10.90;99.90;;;;;;5088587;28;19940;-70
2023/01/02 08:38:33;;;;;;;;;;;11.00;99.90;;;;;;5088540;28;19922;-70
2023/01/02 08:40:59;;;;;;;;;;;11.00;99.90;;;;;;5087857;28;20250;-70
2023/01/02 08:43:24;;;;;;;;;;;11.00;99.90;;;;;;5088197;28;19955;-71
2023/01/02 08:45:50;;;;;;;;;;;10.90;99.90;;;;;;5087856;28;19918;-70
2023/01/02 08:48:15;;;;;;;;;;;11.00;99.90;;;;;;5088315;28;19962;-71
2023/01/02 08:50:41;;;;;;;;;;;10.90;99.90;;;;;;5087918;28;19948;-71
2023/01/02 08:53:06;;;;;;;;;;;10.90;99.90;;;;;;5087728;28;19912;-70
2023/01/02 08:55:32;;;;;;;;;;;10.90;99.90;;;;;;5087453;28;19919;-70
2023/01/02 08:57:57;;;;;;;;;;;11.00;99.90;;;;;;5069488;28;19912;-70
2023/01/02 09:00:22;;;;;;;;;;;11.00;99.90;;;;;;5069236;28;20439;-71
2023/01/02 09:02:48;;;;;;;;;;;11.00;99.90;;;;;;5088181;28;19919;-70
2023/01/02 09:05:13;;;;;;;;;;;11.00;99.90;;;;;;5087930;28;19912;-70
2023/01/02 09:07:39;;;;;;;;;;;11.00;99.90;;;;;;5088055;28;19912;-70
2023/01/02 09:10:05;;;;;;;;;;;11.00;99.90;;;;;;5087135;28;19961;-70
2023/01/02 09:12:30;;;;;;;;;;;11.00;99.90;;;;;;5087663;28;20349;-70
2023/01/02 09:14:56;;;;;;;;;;;11.00;99.90;;;;;;5087388;28;19916;-71
2023/01/02 09:17:21;;;;;;;;;;;10.90;99.90;;;;;;5087575;28;19912;-71
2023/01/02 09:19:47;;;;;;;;;;;11.00;99.90;;;;;;5087462;28;19919;-71
2023/01/02 09:22:13;;;;;;;;;;;11.00;99.90;;;;;;5088010;28;20630;-71
2023/01/02 09:24:38;;;;;;;;;;;11.00;99.90;;;;;;5087611;28;19912;-71
2023/01/02 09:27:04;;;;;;;;;;;10.90;99.90;;;;;;5087092;28;19942;-71
2023/01/02 09:29:29;;;;;;;;;;;11.00;99.90;;;;;;5086825;28;19913;-71
2023/01/02 09:31:55;;;;;;;;;;;10.90;99.90;;;;;;5087281;28;19919;-70
2023/01/02 09:34:20;;;;;;;;;;;11.00;99.90;;;;;;5087205;28;19920;-71
2023/01/02 09:36:46;;;;;;;;;;;10.90;99.90;;;;;;5087424;28;19912;-70
2023/01/02 09:39:12;;;;;;;;;;;11.00;99.90;;;;;;5087343;28;19935;-72
2023/01/02 09:41:37;;;;;;;;;;;10.90;99.90;;;;;;5087205;28;20303;-70
2023/01/02 09:44:06;;;;;;;;;;;11.00;99.90;;;;;;5087420;28;20288;-71
2023/01/02 09:46:39;;;;;;;;;;;10.90;99.90;;;;;;5087283;28;19912;-70
2023/01/02 09:49:04;;;;;;;;;;;10.90;99.90;;;;;;5087201;28;20280;-70
2023/01/02 09:51:31;;;;;;;;;;;10.90;99.90;;;;;;5086961;28;19913;-71
2023/01/02 09:53:56;;;;;;;;;;;10.90;99.90;;;;;;5080672;28;19934;-71
2023/01/02 09:56:31;;;;;;;;;;;10.90;99.90;;;;;;5086818;28;20529;-70
2023/01/02 09:58:56;;;;;;;;;;;10.90;99.90;;;;;;5087043;28;19912;-70
2023/01/02 10:01:25;;;;;;;;;;;10.90;99.90;;;;;;5086595;28;20391;-70
2023/01/02 10:03:59;;;;;;;;;;;10.90;99.90;;;;;;5086786;28;19954;-71
2023/01/02 10:06:31;;;;;;;;;;;10.90;99.90;;;;;;5087053;28;19927;-70
2023/01/02 10:09:03;;;;;;;;;;;10.90;99.90;;;;;;5087028;28;20027;-71
2023/01/02 10:11:47;;;;;;;;;;;10.90;99.90;;;;;;5086613;28;20731;-70
2023/01/02 10:14:31;;;;;;;;;;;10.90;99.90;;;;;;5086723;28;19927;-71
2023/01/02 10:16:58;;;;;;;;;;;10.90;99.90;;;;;;5086465;28;19912;-71
2023/01/02 10:19:23;;;;;;;;;;;10.90;99.90;;;;;;5086009;28;19912;-70
2023/01/02 10:21:51;;;;;;;;;;;10.90;99.90;;;;;;5086401;28;20369;-71
2023/01/02 10:24:18;;;;;;;;;;;10.90;99.90;;;;;;5086183;28;19923;-70
2023/01/02 10:26:50;;;;;;;;;;;10.80;99.90;;;;;;5085530;28;20635;-70
2023/01/02 10:29:21;;;;;;;;;;;10.80;99.90;;;;;;5067224;28;19908;-70
2023/01/02 10:31:50;;;;;;;;;;;10.80;99.90;;;;;;5086744;28;20064;-71
2023/01/02 10:34:16;;;;;;;;;;;10.80;99.90;;;;;;5086527;28;19908;-70
2023/01/02 10:36:43;;;;;;;;;;;10.80;99.90;;;;;;5086731;28;20345;-71
2023/01/02 10:39:12;;;;;;;;;;;10.80;99.90;;;;;;5087133;28;20646;-70
2023/01/02 10:41:38;;;;;;;;;;;10.80;99.90;;;;;;5090833;28;19974;-70
2023/01/02 10:44:06;;;;;;;;;;;10.80;99.90;;;;;;5090466;28;19923;-71
2023/01/02 10:46:33;;;;;;;;;;;10.80;99.90;;;;;;5090526;28;20530;-71
2023/01/02 10:48:58;;;;;;;;;;;10.80;99.90;;;;;;5090757;28;19912;-71
2023/01/02 10:51:24;;;;;;;;;;;10.80;99.90;;;;;;5090400;28;20277;-70
2023/01/02 10:54:06;;;;;;;;;;;10.80;99.90;;;;;;5083861;28;19912;-70
2023/01/02 10:56:33;;;;;;;;;;;10.80;99.90;;;;;;5090577;28;20567;-70
2023/01/02 10:58:59;;;;;;;;;;;10.80;99.90;;;;;;5090288;28;19912;-71
2023/01/02 11:01:24;;;;;;;;;;;10.80;99.90;;;;;;5090153;28;20323;-70
2023/01/02 11:03:52;;;;;;;;;;;10.80;99.90;;;;;;5090448;28;19992;-70
2023/01/02 11:06:19;;;;;;;;;;;10.80;99.90;;;;;;5090515;28;19950;-71
2023/01/02 11:08:53;;;;;;;;;;;10.80;99.90;;;;;;5090678;28;19916;-70
2023/01/02 11:11:18;;;;;;;;;;;10.80;99.90;;;;;;5090164;28;20022;-70
2023/01/02 11:13:48;;;;;;;;;;;10.70;99.90;;;;;;5072010;28;20014;-71
2023/01/02 11:16:15;;;;;;;;;;;10.70;99.90;;;;;;5089957;28;19951;-71
2023/01/02 11:18:47;;;;;;;;;;;10.80;99.90;;;;;;5090227;28;19908;-71
2023/01/02 11:21:22;;;;;;;;;;;10.70;99.90;;;;;;5089610;28;19919;-71
2023/01/02 11:23:47;;;;;;;;;;;10.70;99.90;;;;;;5090032;28;19909;-71
2023/01/02 11:26:19;;;;;;;;;;;10.80;99.90;;;;;;5089979;28;19919;-70
2023/01/02 11:28:45;;;;;;;;;;;10.80;99.90;;;;;;5090414;28;19922;-71
2023/01/02 11:31:12;;;;;;;;;;;10.70;99.90;;;;;;5089545;28;19908;-71
2023/01/02 11:33:38;;;;;;;;;;;10.70;99.90;;;;;;5089398;28;19919;-71
2023/01/02 11:36:05;;;;;;;;;;;10.70;99.90;;;;;;5089915;28;19920;-71
2023/01/02 11:38:47;;;;;;;;;;;10.80;99.90;;;;;;5089756;28;20008;-71
2023/01/02 11:43:47;;;;;;;;;;;10.70;99.90;;;;;;5089121;28;20249;-71
2023/01/02 11:44:13;;;;;;;;;;;10.80;99.90;;;;;;5089197;28;19914;-70
2023/01/02 11:46:38;;;;;;;;;;;10.70;99.90;;;;;;5084722;28;19911;-71
2023/01/02 11:49:04;;;;;;;;;;;10.80;99.90;;;;;;5089558;28;20689;-71
2023/01/02 11:51:31;;;;;;;;;;;10.80;99.90;;;;;;5089173;28;19923;-71
2023/01/02 11:53:58;;;;;;;;;;;10.70;99.90;;;;;;5065066;28;19908;-70
2023/01/02 11:56:27;;;;;;;;;;;10.70;99.90;;;;;;5089145;28;19908;-71
2023/01/02 11:59:16;;;;;;;;;;;10.70;99.90;;;;;;5071194;28;19912;-71
2023/01/02 12:02:00;;;;;;;;;;;10.70;99.90;;;;;;5080770;28;19947;-70
2023/01/02 12:04:26;;;;;;;;;;;10.70;99.90;;;;;;5070592;28;19920;-71
2023/01/02 12:06:57;;;;;;;;;;;10.70;99.90;;;;;;5089358;28;19912;-71
2023/01/02 12:09:25;;;;;;;;;;;10.70;99.90;;;;;;5088808;28;20508;-70
2023/01/02 12:11:51;;;;;;;;;;;10.70;99.90;;;;;;5089154;28;20383;-70
2023/01/02 12:14:18;;;;;;;;;;;10.70;99.90;;;;;;5089013;28;19959;-70
2023/01/02 12:16:43;;;;;;;;;;;10.80;99.90;;;;;;5092325;28;20371;-71
2023/01/02 12:19:18;;;;;;;;;;;10.80;99.90;;;;;;5089080;28;19912;-70
2023/01/02 12:21:53;;;;;;;;;;;10.80;99.90;;;;;;5088919;28;19916;-71
2023/01/02 12:24:42;;;;;;;;;;;10.80;99.90;;;;;;5088893;28;19953;-70
2023/01/02 12:27:19;;;;;;;;;;;10.80;99.90;;;;;;5088916;28;19912;-70
2023/01/02 12:29:57;;;;;;;;;;;10.80;99.90;;;;;;5088478;28;19916;-71
2023/01/02 12:32:22;;;;;;;;;;;10.80;99.90;;;;;;5088253;28;19912;-70
2023/01/02 12:34:53;;;;;;;;;;;10.80;99.90;;;;;;5069994;28;19934;-70
2023/01/02 12:37:34;;;;;;;;;;;10.80;99.90;;;;;;5088578;28;20007;-70
2023/01/02 12:40:03;;;;;;;;;;;10.80;99.90;;;;;;5069885;28;19923;-70
2023/01/02 12:42:44;;;;;;;;;;;10.80;99.90;;;;;;5088499;28;19956;-71
2023/01/02 12:45:18;;;;;;;;;;;10.80;99.90;;;;;;5092164;28;19916;-70
2023/01/02 12:48:00;;;;;;;;;;;10.80;99.90;;;;;;5088504;28;19934;-70
2023/01/02 12:50:44;;;;;;;;;;;10.80;99.90;;;;;;5081851;28;19955;-70
2023/01/02 12:53:12;;;;;;;;;;;10.90;99.90;;;;;;5087565;28;19920;-70
2023/01/02 12:55:56;;;;;;;;;;;10.80;99.90;;;;;;5086909;28;20364;-70
2023/01/02 12:58:27;;;;;;;;;;;10.80;99.90;;;;;;5083486;28;19916;-70
2023/01/02 13:00:53;;;;;;;;;;;10.80;99.90;;;;;;5087063;28;19937;-71
2023/01/02 13:03:34;;;;;;;;;;;10.80;99.90;;;;;;5068724;28;19916;-70
2023/01/02 13:06:07;;;;;;;;;;;10.90;99.90;;;;;;5085405;28;19954;-70
2023/01/02 13:08:53;;;;;;;;;;;10.80;99.90;;;;;;5087389;28;19919;-69
2023/01/02 13:11:25;;;;;;;;;;;10.80;99.90;;;;;;5086391;28;19912;-70
2023/01/02 13:13:51;;;;;;;;;;;10.80;99.90;;;;;;5087719;28;20002;-70
2023/01/02 13:16:17;;;;;;;;;;;10.80;99.90;;;;;;5087969;28;20302;-71
2023/01/02 13:19:01;;;;;;;;;;;10.80;99.90;;;;;;5087646;28;19911;-70
2023/01/02 13:21:45;;;;;;;;;;;10.80;99.90;;;;;;5085084;28;20265;-70
2023/01/02 13:24:12;;;;;;;;;;;10.80;99.90;;;;;;5086465;28;19912;-69
2023/01/02 13:26:38;;;;;;;;;;;10.80;99.90;;;;;;5087196;28;19938;-69
2023/01/02 13:29:07;;;;;;;;;;;10.80;99.90;;;;;;5069343;28;19912;-71
2023/01/02 13:31:35;;;;;;;;;;;10.80;99.90;;;;;;5086837;28;20007;-69
2023/01/02 13:34:05;;;;;;;;;;;10.80;99.90;;;;;;5077930;28;20430;-69
2023/01/02 13:36:37;;;;;;;;;;;10.80;99.90;;;;;;5082229;28;19916;-69
2023/01/02 13:39:16;;;;;;;;;;;10.80;99.90;;;;;;5069259;28;19959;-70
2023/01/02 13:44:36;;;;;;;;;;;10.80;99.90;;;;;;5058383;28;19919;-70
2023/01/02 13:47:12;;;;;;;;;;;10.80;99.90;;;;;;5072024;28;19912;-70
2023/01/02 13:49:38;;;;;;;;;;;10.80;99.90;;;;;;5084294;28;20018;-69
2023/01/02 13:52:03;;;;;;;;;;;10.80;99.90;;;;;;5085127;28;19938;-69
2023/01/02 13:54:35;;;;;;;;;;;10.80;99.90;;;;;;5084243;28;19912;-70
2023/01/02 13:57:23;;;;;;;;;;;10.80;99.90;;;;;;5066638;28;20369;-69
2023/01/02 13:59:59;;;;;;;;;;;10.80;99.90;;;;;;5085177;28;19920;-69
2023/01/02 14:02:25;;;;;;;;;;;10.70;99.90;;;;;;5086620;28;20011;-69
2023/01/02 14:04:50;;;;;;;;;;;10.70;99.90;;;;;;5086631;28;19994;-71
2023/01/02 14:07:25;;;;;;;;;;;10.80;99.90;;;;;;5068078;28;19916;-71
2023/01/02 14:10:00;;;;;;;;;;;10.70;99.90;;;;;;5085751;28;19916;-69
2023/01/02 14:12:25;;;;;;;;;;;10.70;99.90;;;;;;5086436;28;19995;-69
2023/01/02 14:14:51;;;;;;;;;;;10.70;99.90;;;;;;5089608;28;20368;-69
2023/01/02 14:17:43;;;;;;;;;;;10.70;99.90;;;;;;5091698;28;19912;-70
2023/01/02 14:20:28;;;;;;;;;;;10.70;99.90;;;;;;5089646;28;19954;-70
2023/01/02 14:22:53;;;;;;;;;;;10.70;99.90;;;;;;5088408;28;19962;-69
2023/01/02 14:25:19;;;;;;;;;;;10.70;99.90;;;;;;5089118;28;19959;-70
2023/01/02 14:27:53;;;;;;;;;;;10.70;99.90;;;;;;5089827;28;19916;-70
2023/01/02 14:30:44;;;;;;;;;;;10.60;99.90;;;;;;5089373;28;19932;-70